Time;durP1;ratioP1;P1;durP2;ratioP2;P2;SDS_P1;SDS_P2;PMS_P1;PMS_P2;Temp;Humidity;BMP_temperature;BMP_pressure;BME280_temperature;BME280_humidity;BME280_pressure;Samples;Min_cycle;Max_cycle;Signal;HPM_P1;HPM_P2
2023/10/21 00:02:13;;;;;;;3.45;0.88;;;;;;;;;;4905626;29;20502;-67
2023/10/21 00:05:53;;;;;;;2.75;0.70;;;;;;;;;;4910147;29;20047;-68
2023/10/21 00:09:34;;;;;;;2.13;0.85;;;;;;;;;;4910726;29;20048;-66
2023/10/21 00:13:14;;;;;;;2.60;0.95;;;;;;;;;;4906463;29;20048;-67
2023/10/21 00:16:56;;;;;;;2.90;0.90;;;;;;;;;;4907807;29;20062;-66
2023/10/21 00:20:36;;;;;;;3.25;0.70;;;;;;;;;;4903466;29;20044;-67
2023/10/21 00:24:18;;;;;;;3.15;0.90;;;;;;;;;;4906695;29;20365;-67
2023/10/21 00:27:59;;;;;;;3.45;1.00;;;;;;;;;;4908107;29;20461;-69
2023/10/21 00:31:43;;;;;;;2.55;0.80;;;;;;;;;;4900636;29;20200;-67
2023/10/21 00:35:25;;;;;;;1.48;0.70;;;;;;;;;;4909202;29;20055;-68
2023/10/21 00:39:10;;;;;;;3.38;0.90;;;;;;;;;;4907956;29;20127;-66
2023/10/21 00:42:49;;;;;;;1.77;0.60;;;;;;;;;;4905332;29;20044;-66
2023/10/21 00:46:29;;;;;;;2.67;1.00;;;;;;;;;;4906282;29;20087;-66
2023/10/21 00:50:09;;;;;;;5.68;1.00;;;;;;;;;;4905848;29;20079;-66
2023/10/21 00:53:50;;;;;;;2.00;0.70;;;;;;;;;;4907387;29;20114;-67
2023/10/21 00:57:31;;;;;;;3.28;1.00;;;;;;;;;;4905185;29;20156;-67
2023/10/21 01:01:10;;;;;;;3.53;0.88;;;;;;;;;;4908294;29;20048;-68
2023/10/21 01:04:52;;;;;;;3.13;1.10;;;;;;;;;;4907500;29;20060;-67
2023/10/21 01:08:33;;;;;;;4.18;0.80;;;;;;;;;;4903206;29;20048;-68
2023/10/21 01:12:13;;;;;;;2.33;0.70;;;;;;;;;;4909851;29;20044;-66
2023/10/21 01:15:53;;;;;;;7.03;1.08;;;;;;;;;;4908962;29;20059;-67
2023/10/21 01:19:33;;;;;;;2.15;0.75;;;;;;;;;;4908381;29;20036;-66
2023/10/21 01:23:15;;;;;;;1.92;0.75;;;;;;;;;;4904214;29;20047;-67
2023/10/21 01:26:54;;;;;;;2.97;0.68;;;;;;;;;;4908246;29;20244;-66
2023/10/21 01:30:35;;;;;;;6.72;1.20;;;;;;;;;;4912694;29;20052;-67
2023/10/21 01:34:15;;;;;;;3.53;0.65;;;;;;;;;;4907126;29;20111;-67
2023/10/21 01:37:55;;;;;;;4.72;0.73;;;;;;;;;;4909080;29;20496;-66
2023/10/21 01:41:36;;;;;;;2.42;0.68;;;;;;;;;;4909913;29;20040;-67
2023/10/21 01:45:16;;;;;;;3.97;0.90;;;;;;;;;;4913219;29;20059;-65
2023/10/21 01:48:56;;;;;;;2.92;0.75;;;;;;;;;;4912842;29;20044;-67
2023/10/21 01:52:37;;;;;;;1.75;0.70;;;;;;;;;;4913417;29;20409;-67
2023/10/21 01:56:20;;;;;;;1.05;0.60;;;;;;;;;;4909011;29;20116;-65
2023/10/21 02:00:00;;;;;;;1.27;0.50;;;;;;;;;;4905540;29;20499;-66
2023/10/21 02:03:43;;;;;;;2.42;0.70;;;;;;;;;;4908297;29;20040;-65
2023/10/21 02:07:25;;;;;;;3.10;0.70;;;;;;;;;;4905980;29;20402;-67
2023/10/21 02:11:05;;;;;;;2.92;0.60;;;;;;;;;;4906725;29;20108;-67
2023/10/21 02:14:45;;;;;;;2.55;0.68;;;;;;;;;;4912795;29;20055;-65
2023/10/21 02:18:26;;;;;;;2.67;0.80;;;;;;;;;;4911977;29;20104;-66
2023/10/21 02:22:06;;;;;;;3.72;1.02;;;;;;;;;;4906877;29;20382;-65
2023/10/21 02:25:46;;;;;;;4.65;0.70;;;;;;;;;;4909903;29;20058;-65
2023/10/21 02:29:27;;;;;;;3.42;0.90;;;;;;;;;;4908958;29;20106;-70
2023/10/21 02:33:08;;;;;;;4.85;0.70;;;;;;;;;;4905741;29;20122;-66
2023/10/21 02:36:47;;;;;;;1.95;0.60;;;;;;;;;;4911014;29;20418;-66
2023/10/21 02:40:28;;;;;;;2.22;0.55;;;;;;;;;;4911193;29;20060;-65
2023/10/21 02:44:09;;;;;;;0.85;0.50;;;;;;;;;;4909690;29;20489;-66
2023/10/21 02:47:50;;;;;;;4.22;0.93;;;;;;;;;;4904709;29;20058;-68
2023/10/21 02:51:33;;;;;;;2.38;1.10;;;;;;;;;;4907428;29;20048;-66
2023/10/21 02:55:13;;;;;;;1.85;0.80;;;;;;;;;;4907835;29;20059;-65
2023/10/21 02:58:53;;;;;;;1.45;0.85;;;;;;;;;;4909212;29;20051;-66
2023/10/21 03:02:34;;;;;;;4.80;0.73;;;;;;;;;;4906577;29;20112;-67
2023/10/21 03:06:14;;;;;;;3.22;0.85;;;;;;;;;;4909161;29;20048;-65
2023/10/21 03:09:54;;;;;;;1.50;0.60;;;;;;;;;;4910914;29;20464;-65
2023/10/21 03:13:34;;;;;;;2.20;0.70;;;;;;;;;;4904960;29;20056;-65
2023/10/21 03:17:15;;;;;;;3.10;0.63;;;;;;;;;;4909213;29;20052;-65
2023/10/21 03:20:55;;;;;;;2.58;0.73;;;;;;;;;;4907889;29;20044;-67
2023/10/21 03:24:37;;;;;;;1.92;0.80;;;;;;;;;;4905866;29;20560;-65
2023/10/21 03:28:19;;;;;;;2.40;0.70;;;;;;;;;;4909291;29;20056;-65
2023/10/21 03:31:59;;;;;;;2.47;0.68;;;;;;;;;;4906399;29;20040;-65
2023/10/21 03:35:39;;;;;;;2.80;0.90;;;;;;;;;;4911481;29;20500;-66
2023/10/21 03:39:21;;;;;;;3.10;1.00;;;;;;;;;;4909927;29;20056;-64
2023/10/21 03:43:00;;;;;;;4.10;0.75;;;;;;;;;;4900999;29;20048;-65
2023/10/21 03:46:40;;;;;;;1.33;0.60;;;;;;;;;;4909264;29;20052;-66
2023/10/21 03:50:21;;;;;;;3.67;0.70;;;;;;;;;;4905923;29;20115;-66
2023/10/21 03:54:01;;;;;;;1.67;0.75;;;;;;;;;;4908667;29;20048;-64
2023/10/21 03:57:43;;;;;;;2.95;0.70;;;;;;;;;;4907701;29;20059;-64
2023/10/21 04:01:24;;;;;;;3.22;1.10;;;;;;;;;;4906769;29;20131;-64
2023/10/21 04:05:08;;;;;;;1.42;0.80;;;;;;;;;;4903716;29;20044;-65
2023/10/21 04:08:46;;;;;;;2.35;0.80;;;;;;;;;;4910803;29;20087;-66
2023/10/21 04:12:26;;;;;;;4.97;1.05;;;;;;;;;;4906749;29;20056;-67
2023/10/21 04:16:09;;;;;;;2.70;0.90;;;;;;;;;;4907069;29;20113;-65
2023/10/21 04:19:50;;;;;;;1.92;0.70;;;;;;;;;;4907338;29;20477;-66
2023/10/21 04:23:30;;;;;;;4.22;0.80;;;;;;;;;;4906882;29;20138;-65
2023/10/21 04:27:11;;;;;;;2.67;1.00;;;;;;;;;;4910035;29;20499;-65
2023/10/21 04:30:51;;;;;;;2.35;0.80;;;;;;;;;;4908037;29;20511;-66
2023/10/21 04:34:32;;;;;;;3.60;0.80;;;;;;;;;;4908868;29;20048;-66
2023/10/21 04:38:12;;;;;;;4.28;0.80;;;;;;;;;;4913402;29;20461;-65
2023/10/21 04:41:52;;;;;;;7.95;1.73;;;;;;;;;;4906191;29;20055;-66
2023/10/21 04:45:33;;;;;;;3.97;1.00;;;;;;;;;;4909900;29;20060;-65
2023/10/21 04:49:13;;;;;;;2.67;0.57;;;;;;;;;;4911099;29;20071;-65
2023/10/21 04:52:54;;;;;;;2.50;0.60;;;;;;;;;;4907953;29;20437;-65
2023/10/21 04:56:35;;;;;;;2.33;0.75;;;;;;;;;;4915555;29;20563;-67
2023/10/21 05:00:16;;;;;;;2.95;0.80;;;;;;;;;;4914426;29;20071;-68
2023/10/21 05:03:56;;;;;;;2.45;0.82;;;;;;;;;;4913698;29;20453;-66
2023/10/21 05:07:36;;;;;;;2.53;0.90;;;;;;;;;;4912807;29;20056;-66
2023/10/21 05:11:17;;;;;;;4.32;0.80;;;;;;;;;;4914125;29;20048;-66
2023/10/21 05:14:57;;;;;;;3.50;1.00;;;;;;;;;;4909826;29;20473;-68
2023/10/21 05:18:39;;;;;;;2.55;0.90;;;;;;;;;;4912609;29;20059;-67
2023/10/21 05:22:19;;;;;;;2.28;0.95;;;;;;;;;;4914138;29;20048;-67
2023/10/21 05:25:59;;;;;;;1.88;0.77;;;;;;;;;;4914624;29;20063;-69
2023/10/21 05:29:40;;;;;;;3.65;0.75;;;;;;;;;;4914349;29;20052;-67
2023/10/21 05:33:20;;;;;;;5.70;1.08;;;;;;;;;;4908325;29;20060;-68
2023/10/21 05:37:01;;;;;;;3.35;0.98;;;;;;;;;;4916673;29;20384;-66
2023/10/21 05:40:41;;;;;;;3.13;0.75;;;;;;;;;;4913050;29;20068;-67
2023/10/21 05:44:21;;;;;;;3.72;1.15;;;;;;;;;;4912039;29;20123;-67
2023/10/21 05:48:02;;;;;;;5.97;1.05;;;;;;;;;;4915628;29;20075;-67
2023/10/21 05:51:42;;;;;;;2.58;0.73;;;;;;;;;;4918157;29;20052;-66
2023/10/21 05:55:23;;;;;;;1.98;0.70;;;;;;;;;;4915967;29;20560;-65
2023/10/21 05:59:04;;;;;;;3.28;0.80;;;;;;;;;;4911040;29;20043;-66
2023/10/21 06:02:44;;;;;;;6.22;1.05;;;;;;;;;;4908575;29;20335;-67
2023/10/21 06:06:26;;;;;;;2.90;0.85;;;;;;;;;;4908233;29;20052;-66
2023/10/21 06:10:07;;;;;;;4.63;0.95;;;;;;;;;;4909432;29;20062;-67
2023/10/21 06:13:48;;;;;;;6.10;1.13;;;;;;;;;;4902182;29;20591;-67
2023/10/21 06:17:28;;;;;;;3.90;0.75;;;;;;;;;;4905006;29;20056;-66
2023/10/21 06:21:09;;;;;;;7.00;1.55;;;;;;;;;;4907075;29;20060;-66
2023/10/21 06:24:50;;;;;;;2.75;0.93;;;;;;;;;;4905684;29;20052;-66
2023/10/21 06:28:30;;;;;;;1.90;1.00;;;;;;;;;;4901417;29;20484;-66
2023/10/21 06:32:12;;;;;;;3.80;0.85;;;;;;;;;;4903383;29;20142;-67
2023/10/21 06:35:52;;;;;;;4.28;0.95;;;;;;;;;;4903957;29;20052;-65
2023/10/21 06:39:33;;;;;;;3.35;0.82;;;;;;;;;;4904299;29;20087;-66
2023/10/21 06:43:14;;;;;;;4.40;1.38;;;;;;;;;;4903778;29;20390;-67
2023/10/21 06:46:55;;;;;;;3.90;0.80;;;;;;;;;;4902013;29;20131;-68
2023/10/21 06:50:37;;;;;;;2.95;1.15;;;;;;;;;;4900445;29;20060;-66
2023/10/21 06:54:18;;;;;;;3.05;1.08;;;;;;;;;;4896010;29;20408;-69
2023/10/21 06:57:59;;;;;;;2.38;0.90;;;;;;;;;;4902270;29;20091;-66
2023/10/21 07:01:40;;;;;;;5.43;1.13;;;;;;;;;;4896737;29;20453;-69
2023/10/21 07:05:20;;;;;;;5.22;1.17;;;;;;;;;;4899829;29;20043;-67
2023/10/21 07:09:00;;;;;;;6.13;1.13;;;;;;;;;;4903065;29;20056;-68
2023/10/21 07:12:42;;;;;;;3.05;1.17;;;;;;;;;;4903072;29;20048;-71
2023/10/21 07:16:26;;;;;;;3.42;1.05;;;;;;;;;;4900315;29;20048;-70
2023/10/21 07:20:06;;;;;;;3.95;1.27;;;;;;;;;;4899066;29;20599;-69
2023/10/21 07:23:47;;;;;;;6.13;1.00;;;;;;;;;;4900466;29;20519;-69
2023/10/21 07:27:27;;;;;;;4.05;1.38;;;;;;;;;;4901017;29;20052;-67
2023/10/21 07:31:08;;;;;;;3.00;1.10;;;;;;;;;;4901212;29;20051;-70
2023/10/21 07:34:49;;;;;;;6.38;1.02;;;;;;;;;;4901877;29;20056;-68
2023/10/21 07:38:32;;;;;;;3.55;1.25;;;;;;;;;;4903838;29;20082;-70
2023/10/21 07:42:14;;;;;;;4.55;1.08;;;;;;;;;;4914612;29;20040;-69
2023/10/21 07:45:53;;;;;;;6.50;1.00;;;;;;;;;;4907205;29;20135;-67
2023/10/21 07:49:33;;;;;;;4.38;0.80;;;;;;;;;;4908334;29;20396;-66
2023/10/21 07:53:19;;;;;;;4.93;1.20;;;;;;;;;;4909038;29;20043;-69
2023/10/21 07:57:00;;;;;;;6.10;1.38;;;;;;;;;;4909528;29;20079;-67
2023/10/21 08:00:42;;;;;;;3.72;0.98;;;;;;;;;;4906443;29;20051;-65
2023/10/21 08:04:22;;;;;;;6.68;1.00;;;;;;;;;;4908222;29;20055;-67
2023/10/21 08:08:03;;;;;;;5.00;1.30;;;;;;;;;;4909538;29;20408;-66
2023/10/21 08:11:43;;;;;;;4.78;1.23;;;;;;;;;;4910019;29;20036;-66
2023/10/21 08:15:24;;;;;;;3.70;1.00;;;;;;;;;;4905738;29;20107;-66
2023/10/21 08:19:05;;;;;;;2.80;0.98;;;;;;;;;;4894148;29;20167;-70
2023/10/21 08:22:46;;;;;;;8.02;1.20;;;;;;;;;;4905330;29;20481;-67
2023/10/21 08:26:28;;;;;;;3.10;1.00;;;;;;;;;;4904808;29;20059;-70
2023/10/21 08:30:11;;;;;;;1.75;0.80;;;;;;;;;;4903695;29;20507;-69
2023/10/21 08:33:51;;;;;;;2.63;1.10;;;;;;;;;;4908601;29;20103;-69
2023/10/21 08:37:33;;;;;;;3.42;1.30;;;;;;;;;;4908260;29;20143;-68
2023/10/21 08:41:17;;;;;;;10.00;1.75;;;;;;;;;;4906836;29;20807;-68
2023/10/21 08:44:57;;;;;;;2.78;1.05;;;;;;;;;;4902686;29;20059;-70
2023/10/21 08:48:38;;;;;;;3.85;1.40;;;;;;;;;;4905868;29;20088;-66
2023/10/21 08:52:19;;;;;;;6.50;1.20;;;;;;;;;;4907636;29;20082;-69
2023/10/21 08:55:58;;;;;;;3.63;1.30;;;;;;;;;;4904251;29;20520;-69
2023/10/21 08:59:40;;;;;;;3.20;1.30;;;;;;;;;;4908476;29;20048;-68
2023/10/21 09:03:23;;;;;;;4.68;1.00;;;;;;;;;;4906122;29;20241;-68
2023/10/21 09:07:12;;;;;;;4.60;1.27;;;;;;;;;;4902898;29;20047;-69
2023/10/21 09:10:53;;;;;;;4.13;1.13;;;;;;;;;;4901230;29;20126;-68
2023/10/21 09:14:33;;;;;;;5.05;1.10;;;;;;;;;;4903885;29;20103;-67
2023/10/21 09:18:14;;;;;;;5.07;1.42;;;;;;;;;;4902668;29;20058;-70
2023/10/21 09:22:01;;;;;;;4.55;1.00;;;;;;;;;;4907633;29;20062;-71
2023/10/21 09:25:47;;;;;;;5.78;1.17;;;;;;;;;;4911212;29;20175;-67
2023/10/21 09:29:29;;;;;;;4.95;1.20;;;;;;;;;;4905971;29;20064;-69
2023/10/21 09:33:10;;;;;;;7.32;1.48;;;;;;;;;;4910079;29;20052;-68
2023/10/21 09:36:52;;;;;;;3.50;1.30;;;;;;;;;;4907699;29;20445;-71
2023/10/21 09:39:54;;;;;;;5.68;1.27;;;;;;;;;;4917026;29;20562;-70
2023/10/21 09:43:03;;;;;;;4.03;1.40;;;;;;;;;;4908823;29;20047;-71
2023/10/21 09:46:43;;;;;;;4.18;1.10;;;;;;;;;;4904959;29;20048;-72
2023/10/21 09:50:24;;;;;;;4.25;1.25;;;;;;;;;;4910533;29;20043;-66
2023/10/21 09:54:03;;;;;;;4.93;1.45;;;;;;;;;;4906526;29;20048;-69
2023/10/21 09:57:44;;;;;;;8.13;1.52;;;;;;;;;;4919801;29;20052;-69
2023/10/21 10:01:24;;;;;;;3.60;1.35;;;;;;;;;;4908237;29;20070;-69
2023/10/21 10:05:06;;;;;;;4.60;1.38;;;;;;;;;;4906901;29;20074;-68
2023/10/21 10:08:45;;;;;;;3.67;1.30;;;;;;;;;;4907853;29;20114;-68
2023/10/21 10:12:40;;;;;;;5.22;1.50;;;;;;;;;;4900310;29;20403;-71
2023/10/21 10:16:22;;;;;;;6.97;1.60;;;;;;;;;;4909146;29;20125;-69
2023/10/21 10:20:16;;;;;;;5.18;1.20;;;;;;;;;;4905589;29;20052;-72
2023/10/21 10:23:57;;;;;;;4.40;1.35;;;;;;;;;;4905944;29;20044;-73
2023/10/21 10:27:06;;;;;;;5.22;1.50;;;;;;;;;;4899120;29;20036;-67
2023/10/21 10:29:36;;;;;;;4.60;1.42;;;;;;;;;;4913188;29;20076;-68
2023/10/21 10:32:20;;;;;;;4.80;1.30;;;;;;;;;;4909600;29;20060;-70
2023/10/21 10:34:55;;;;;;;3.05;1.05;;;;;;;;;;4894572;29;20111;-70
2023/10/21 10:37:34;;;;;;;4.68;1.23;;;;;;;;;;4915291;29;20036;-68
2023/10/21 10:40:05;;;;;;;4.90;1.00;;;;;;;;;;4900750;29;20070;-69
2023/10/21 10:42:34;;;;;;;3.30;1.30;;;;;;;;;;4890858;29;20050;-70
2023/10/21 10:45:03;;;;;;;4.75;1.60;;;;;;;;;;4910058;29;20131;-68
2023/10/21 10:47:29;;;;;;;5.68;1.08;;;;;;;;;;4911610;29;20049;-69
2023/10/21 10:50:00;;;;;;;3.33;1.10;;;;;;;;;;4910048;29;20106;-71
2023/10/21 10:52:35;;;;;;;4.38;1.10;;;;;;;;;;4904760;29;20056;-73
2023/10/21 10:55:08;;;;;;;3.55;1.00;;;;;;;;;;4895471;29;20158;-70
2023/10/21 10:57:34;;;;;;;3.17;0.90;;;;;;;;;;4911569;29;20048;-74
2023/10/21 11:00:03;;;;;;;5.53;0.98;;;;;;;;;;4905044;29;20056;-72
2023/10/21 11:02:42;;;;;;;2.45;0.90;;;;;;;;;;4911921;29;20068;-71
2023/10/21 11:05:20;;;;;;;5.47;1.10;;;;;;;;;;4909422;29;20444;-74
2023/10/21 11:07:50;;;;;;;2.72;1.13;;;;;;;;;;4906785;29;20217;-70
2023/10/21 11:10:21;;;;;;;3.53;1.40;;;;;;;;;;4908351;29;20051;-71
2023/10/21 11:12:49;;;;;;;5.15;1.40;;;;;;;;;;4900773;29;20401;-70
2023/10/21 11:15:21;;;;;;;2.70;1.10;;;;;;;;;;4901831;29;20066;-70
2023/10/21 11:17:53;;;;;;;5.65;1.30;;;;;;;;;;4904840;29;20095;-70
2023/10/21 11:20:26;;;;;;;4.88;1.05;;;;;;;;;;4900980;29;20060;-70
2023/10/21 11:23:31;;;;;;;3.00;0.88;;;;;;;;;;4898165;29;20631;-71
2023/10/21 11:27:15;;;;;;;2.70;0.90;;;;;;;;;;4902085;29;20066;-70
2023/10/21 11:30:56;;;;;;;1.98;0.90;;;;;;;;;;4907729;29;20039;-71
2023/10/21 11:34:50;;;;;;;2.75;0.95;;;;;;;;;;4906416;29;20118;-71
2023/10/21 11:38:33;;;;;;;3.22;1.45;;;;;;;;;;4895187;29;20056;-74
2023/10/21 11:42:17;;;;;;;4.78;0.80;;;;;;;;;;4908475;29;20063;-72
2023/10/21 11:45:49;;;;;;;4.13;0.90;;;;;;;;;;4895497;29;20083;-70
2023/10/21 11:48:24;;;;;;;13.63;1.45;;;;;;;;;;4898702;29;20056;-68
2023/10/21 11:50:51;;;;;;;4.57;1.20;;;;;;;;;;4896473;29;20084;-70
2023/10/21 11:53:19;;;;;;;3.55;1.10;;;;;;;;;;4905259;29;20056;-70
2023/10/21 11:56:22;;;;;;;2.75;1.10;;;;;;;;;;4906518;29;20047;-70
2023/10/21 12:00:18;;;;;;;2.53;1.00;;;;;;;;;;4907823;29;20051;-71
2023/10/21 12:26:56;;;;;;;5.72;1.00;;;;;;;;;;4903663;29;20060;-71
2023/10/21 12:33:53;;;;;;;4.00;1.00;;;;;;;;;;4907642;29;20126;-70
2023/10/21 12:40:43;;;;;;;2.72;0.98;;;;;;;;;;4846617;29;20106;-70
2023/10/21 12:44:23;;;;;;;3.13;1.27;;;;;;;;;;4846652;29;20049;-71
2023/10/21 12:48:08;;;;;;;2.75;1.00;;;;;;;;;;4848363;29;20506;-70
2023/10/21 12:51:45;;;;;;;5.05;1.38;;;;;;;;;;4852136;29;20100;-70
2023/10/21 12:55:25;;;;;;;9.70;1.15;;;;;;;;;;4845765;29;20161;-69
2023/10/21 12:59:08;;;;;;;4.53;1.00;;;;;;;;;;4846886;29;20547;-70
2023/10/21 13:02:50;;;;;;;6.10;1.05;;;;;;;;;;4844861;29;20038;-71
2023/10/21 13:06:35;;;;;;;2.05;1.00;;;;;;;;;;4851046;29;20506;-70
2023/10/21 13:10:17;;;;;;;2.40;1.10;;;;;;;;;;4852294;29;20248;-72
2023/10/21 13:13:57;;;;;;;4.35;0.93;;;;;;;;;;4851350;29;20510;-70
2023/10/21 13:17:40;;;;;;;3.38;0.98;;;;;;;;;;4903718;29;20052;-70
2023/10/21 13:21:21;;;;;;;3.05;1.20;;;;;;;;;;4910466;29;20446;-71
2023/10/21 13:25:07;;;;;;;3.53;1.35;;;;;;;;;;4913720;29;20048;-68
2023/10/21 13:28:42;;;;;;;4.30;0.98;;;;;;;;;;4908172;29;20051;-69
2023/10/21 13:32:23;;;;;;;3.75;0.90;;;;;;;;;;4907036;29;20052;-70
2023/10/21 13:36:05;;;;;;;4.10;1.10;;;;;;;;;;4906485;29;20063;-68
2023/10/21 13:39:44;;;;;;;1.95;0.85;;;;;;;;;;4908978;29;20063;-70
2023/10/21 13:43:25;;;;;;;2.17;0.70;;;;;;;;;;4906908;29;20056;-68
2023/10/21 13:47:08;;;;;;;2.88;1.17;;;;;;;;;;4905116;29;20059;-69
2023/10/21 13:50:49;;;;;;;4.55;1.10;;;;;;;;;;4909894;29;20059;-70
2023/10/21 13:54:26;;;;;;;1.60;0.80;;;;;;;;;;4907037;29;20060;-69
2023/10/21 13:58:08;;;;;;;3.10;1.00;;;;;;;;;;4907204;29;20438;-69
2023/10/21 14:01:48;;;;;;;2.95;0.95;;;;;;;;;;4913886;29;20067;-66
2023/10/21 14:05:28;;;;;;;2.30;0.80;;;;;;;;;;4910710;29;20079;-71
2023/10/21 14:09:22;;;;;;;3.35;1.30;;;;;;;;;;4907715;29;20461;-73
2023/10/21 14:12:49;;;;;;;1.85;0.85;;;;;;;;;;4907161;29;20143;-69
2023/10/21 14:16:29;;;;;;;6.68;1.13;;;;;;;;;;4910078;29;20082;-71
2023/10/21 14:20:11;;;;;;;5.72;1.08;;;;;;;;;;4902371;29;20474;-72
2023/10/21 14:23:51;;;;;;;5.03;0.90;;;;;;;;;;4906395;29;20048;-69
2023/10/21 14:27:31;;;;;;;3.17;1.00;;;;;;;;;;4908970;29;20047;-69
2023/10/21 14:30:34;;;;;;;2.53;1.10;;;;;;;;;;4906867;29;20056;-71
2023/10/21 14:33:41;;;;;;;2.38;0.98;;;;;;;;;;4906515;29;20139;-71
2023/10/21 14:37:22;;;;;;;2.40;0.75;;;;;;;;;;4909428;29;20059;-72
2023/10/21 14:41:03;;;;;;;4.80;0.90;;;;;;;;;;4904780;29;20452;-73
2023/10/21 14:44:45;;;;;;;1.77;0.77;;;;;;;;;;4903386;29;20051;-73
2023/10/21 14:48:13;;;;;;;3.33;1.25;;;;;;;;;;4909640;29;20084;-70
2023/10/21 14:51:20;;;;;;;3.22;1.15;;;;;;;;;;4888324;29;20040;-71
2023/10/21 14:55:00;;;;;;;2.80;1.02;;;;;;;;;;4907400;29;20058;-70
2023/10/21 14:58:40;;;;;;;3.47;0.93;;;;;;;;;;4910081;29;20063;-71
2023/10/21 15:02:25;;;;;;;2.03;0.90;;;;;;;;;;4904309;29;20473;-71
2023/10/21 15:06:05;;;;;;;2.72;0.98;;;;;;;;;;4906388;29;20049;-68
2023/10/21 15:09:49;;;;;;;2.38;1.00;;;;;;;;;;4909554;29;20134;-69
2023/10/21 15:13:30;;;;;;;5.95;1.00;;;;;;;;;;4909891;29;20472;-68
2023/10/21 15:17:12;;;;;;;5.15;0.98;;;;;;;;;;4905202;29;20044;-70
2023/10/21 15:20:53;;;;;;;3.60;1.10;;;;;;;;;;4906767;29;20477;-67
2023/10/21 15:24:34;;;;;;;5.82;1.10;;;;;;;;;;4910645;29;20044;-71
2023/10/21 15:27:35;;;;;;;4.68;1.05;;;;;;;;;;4901553;29;20418;-68
2023/10/21 15:30:41;;;;;;;5.47;0.95;;;;;;;;;;4893209;29;20056;-70
2023/10/21 15:34:23;;;;;;;2.30;0.88;;;;;;;;;;4905994;29;20060;-70
2023/10/21 15:38:03;;;;;;;3.78;1.17;;;;;;;;;;4905158;29;20110;-72
2023/10/21 15:41:42;;;;;;;5.70;1.10;;;;;;;;;;4903522;29;20055;-71
2023/10/21 15:45:23;;;;;;;3.08;1.10;;;;;;;;;;4901176;29;20432;-69
2023/10/21 15:49:04;;;;;;;2.33;0.95;;;;;;;;;;4908997;29;20103;-72
2023/10/21 15:52:45;;;;;;;2.05;1.02;;;;;;;;;;4910647;29;20131;-71
2023/10/21 15:56:26;;;;;;;3.67;0.80;;;;;;;;;;4911534;29;20485;-69
2023/10/21 16:00:11;;;;;;;5.82;1.20;;;;;;;;;;4905763;29;20052;-68
2023/10/21 16:03:46;;;;;;;5.82;1.20;;;;;;;;;;4905461;29;20059;-70
2023/10/21 16:07:28;;;;;;;5.03;1.15;;;;;;;;;;4911230;29;20090;-68
2023/10/21 16:11:08;;;;;;;1.83;0.95;;;;;;;;;;4903948;29;20051;-69
2023/10/21 16:14:48;;;;;;;2.33;1.00;;;;;;;;;;4909499;29;20055;-69
2023/10/21 16:18:32;;;;;;;5.10;1.02;;;;;;;;;;4897176;29;20052;-69
2023/10/21 16:22:10;;;;;;;3.88;1.02;;;;;;;;;;4905045;29;20393;-72
2023/10/21 16:25:50;;;;;;;2.90;0.95;;;;;;;;;;4905687;29;20060;-70
2023/10/21 16:29:32;;;;;;;6.93;0.93;;;;;;;;;;4911234;29;20052;-69
2023/10/21 16:33:12;;;;;;;8.52;1.27;;;;;;;;;;4900274;29;20087;-70
2023/10/21 16:36:54;;;;;;;4.95;1.40;;;;;;;;;;4898295;29;20060;-70
2023/10/21 16:40:34;;;;;;;2.75;1.30;;;;;;;;;;4903510;29;20060;-70
2023/10/21 16:44:15;;;;;;;3.95;1.27;;;;;;;;;;4904512;29;20115;-68
2023/10/21 16:47:55;;;;;;;5.25;1.42;;;;;;;;;;4909086;29;20036;-70
2023/10/21 16:51:37;;;;;;;3.00;1.48;;;;;;;;;;4908107;29;20103;-68
2023/10/21 16:55:18;;;;;;;5.03;1.50;;;;;;;;;;4906240;29;20510;-68
2023/10/21 16:58:59;;;;;;;4.50;1.15;;;;;;;;;;4902944;29;20087;-69
2023/10/21 17:02:42;;;;;;;2.95;0.90;;;;;;;;;;4900632;29;20094;-71
2023/10/21 17:06:21;;;;;;;4.13;1.25;;;;;;;;;;4904041;29;20056;-68
2023/10/21 17:10:01;;;;;;;3.78;1.50;;;;;;;;;;4906665;29;20044;-68
2023/10/21 17:13:43;;;;;;;3.08;1.50;;;;;;;;;;4905970;29;20473;-68
2023/10/21 17:17:24;;;;;;;3.45;1.67;;;;;;;;;;4903667;29;20110;-69
2023/10/21 17:21:05;;;;;;;5.57;1.17;;;;;;;;;;4906699;29;20052;-71
2023/10/21 17:24:47;;;;;;;6.65;1.23;;;;;;;;;;4904797;29;20123;-69
2023/10/21 17:28:27;;;;;;;5.25;0.95;;;;;;;;;;4902101;29;20056;-70
2023/10/21 17:32:09;;;;;;;5.78;1.50;;;;;;;;;;4904452;29;20044;-69
2023/10/21 17:35:50;;;;;;;6.22;1.00;;;;;;;;;;4902763;29;20505;-68
2023/10/21 17:39:31;;;;;;;3.42;1.17;;;;;;;;;;4905188;29;20066;-70
2023/10/21 17:43:13;;;;;;;3.70;1.00;;;;;;;;;;4908980;29;20045;-69
2023/10/21 17:46:52;;;;;;;6.50;1.40;;;;;;;;;;4905547;29;20040;-68
2023/10/21 17:50:34;;;;;;;3.28;1.17;;;;;;;;;;4904383;29;20217;-69
2023/10/21 17:54:16;;;;;;;5.05;1.10;;;;;;;;;;4908198;29;20122;-68
2023/10/21 17:57:56;;;;;;;5.88;1.42;;;;;;;;;;4906793;29;20048;-66
2023/10/21 18:01:36;;;;;;;4.32;1.25;;;;;;;;;;4908486;29;20059;-68
2023/10/21 18:05:17;;;;;;;3.72;1.60;;;;;;;;;;4909694;29;20119;-69
2023/10/21 18:09:00;;;;;;;5.28;1.80;;;;;;;;;;4906500;29;20052;-70
2023/10/21 18:12:40;;;;;;;11.18;1.70;;;;;;;;;;4907483;29;20056;-69
2023/10/21 18:16:21;;;;;;;3.78;1.67;;;;;;;;;;4918271;29;20424;-67
2023/10/21 18:20:01;;;;;;;7.13;1.50;;;;;;;;;;4908897;29;20564;-69
2023/10/21 18:23:44;;;;;;;5.35;1.10;;;;;;;;;;4908784;29;20135;-68
2023/10/21 18:27:25;;;;;;;8.90;1.60;;;;;;;;;;4907903;29;20055;-69
2023/10/21 18:31:06;;;;;;;6.30;1.20;;;;;;;;;;4902131;29;20057;-69
2023/10/21 18:34:47;;;;;;;4.97;1.20;;;;;;;;;;4909372;29;20052;-72
2023/10/21 18:38:27;;;;;;;3.25;1.50;;;;;;;;;;4913388;29;20078;-69
2023/10/21 18:42:07;;;;;;;3.55;1.30;;;;;;;;;;4904644;29;20272;-69
2023/10/21 18:45:50;;;;;;;4.30;1.90;;;;;;;;;;4902169;29;20402;-70
2023/10/21 18:49:30;;;;;;;4.80;1.50;;;;;;;;;;4899805;29;20624;-68
2023/10/21 18:53:13;;;;;;;5.93;1.55;;;;;;;;;;4902481;29;20048;-69
2023/10/21 18:57:12;;;;;;;5.18;1.90;;;;;;;;;;4895952;29;20316;-69
2023/10/21 19:00:53;;;;;;;8.50;1.63;;;;;;;;;;4897975;29;20508;-68
2023/10/21 19:04:33;;;;;;;6.30;1.80;;;;;;;;;;4903046;29;20048;-68
2023/10/21 19:08:15;;;;;;;4.25;1.88;;;;;;;;;;4900745;29;20040;-68
2023/10/21 19:11:56;;;;;;;4.45;1.85;;;;;;;;;;4898516;29;20060;-69
2023/10/21 19:15:38;;;;;;;5.50;2.45;;;;;;;;;;4903224;29;20048;-70
2023/10/21 19:19:18;;;;;;;8.50;3.22;;;;;;;;;;4897448;29;20039;-70
2023/10/21 19:22:58;;;;;;;5.13;1.80;;;;;;;;;;4897592;29;20102;-69
2023/10/21 19:26:39;;;;;;;5.13;1.55;;;;;;;;;;4902114;29;20099;-69
2023/10/21 19:30:19;;;;;;;5.93;1.67;;;;;;;;;;4895795;29;20509;-69
2023/10/21 19:33:59;;;;;;;4.95;1.40;;;;;;;;;;4895056;29;20507;-71
2023/10/21 19:37:48;;;;;;;4.53;1.88;;;;;;;;;;4890195;29;20062;-68
2023/10/21 19:41:22;;;;;;;4.50;1.60;;;;;;;;;;4898814;29;20438;-70
2023/10/21 19:45:02;;;;;;;6.43;1.90;;;;;;;;;;4902974;29;20060;-70
2023/10/21 19:48:42;;;;;;;6.20;2.20;;;;;;;;;;4897354;29;20051;-67
2023/10/21 19:52:23;;;;;;;6.18;2.78;;;;;;;;;;4901064;29;20103;-69
2023/10/21 19:56:03;;;;;;;8.88;2.55;;;;;;;;;;4897008;29;20285;-68
2023/10/21 19:59:43;;;;;;;7.82;2.80;;;;;;;;;;4899278;29;20048;-70
2023/10/21 20:03:27;;;;;;;7.50;2.22;;;;;;;;;;4901424;29;20138;-70
2023/10/21 20:06:48;;;;;;;6.65;2.47;;;;;;;;;;4900201;29;20052;-69
2023/10/21 20:09:17;;;;;;;4.93;2.38;;;;;;;;;;4900114;29;20129;-68
2023/10/21 20:11:44;;;;;;;11.60;2.90;;;;;;;;;;4903776;29;20048;-69
2023/10/21 20:14:11;;;;;;;4.85;2.53;;;;;;;;;;4900383;29;20055;-70
2023/10/21 20:16:38;;;;;;;7.53;2.20;;;;;;;;;;4896700;29;20726;-70
2023/10/21 20:19:04;;;;;;;6.55;2.00;;;;;;;;;;4881792;29;20048;-69
2023/10/21 20:21:35;;;;;;;6.22;2.03;;;;;;;;;;4901936;29;20068;-68
2023/10/21 20:24:03;;;;;;;6.85;2.10;;;;;;;;;;4889379;29;20093;-66
2023/10/21 20:26:30;;;;;;;10.25;1.98;;;;;;;;;;4901781;29;20079;-69
2023/10/21 20:28:57;;;;;;;4.28;1.80;;;;;;;;;;4898373;29;20074;-67
2023/10/21 20:31:23;;;;;;;4.70;2.00;;;;;;;;;;4900095;29;20060;-69
2023/10/21 20:33:49;;;;;;;5.95;2.28;;;;;;;;;;4897030;29;20105;-69
2023/10/21 20:36:17;;;;;;;7.68;2.28;;;;;;;;;;4898844;29;20067;-69
2023/10/21 20:38:45;;;;;;;7.68;2.53;;;;;;;;;;4900360;29;20050;-70
2023/10/21 20:41:15;;;;;;;4.47;2.30;;;;;;;;;;4902775;29;20075;-69
2023/10/21 20:43:42;;;;;;;6.95;1.98;;;;;;;;;;4894669;29;20102;-68
2023/10/21 20:46:09;;;;;;;8.32;2.13;;;;;;;;;;4898893;29;20142;-70
2023/10/21 20:48:38;;;;;;;4.53;1.63;;;;;;;;;;4899440;29;20044;-71
2023/10/21 20:51:06;;;;;;;8.15;2.28;;;;;;;;;;4893487;29;20555;-70
2023/10/21 20:53:34;;;;;;;5.93;2.15;;;;;;;;;;4899326;29;20327;-68
2023/10/21 20:55:59;;;;;;;6.63;1.98;;;;;;;;;;4896874;29;20064;-68
2023/10/21 20:58:27;;;;;;;6.75;2.67;;;;;;;;;;4901241;29;20840;-71
2023/10/21 21:00:53;;;;;;;6.32;2.40;;;;;;;;;;4896859;29;20520;-72
2023/10/21 21:03:20;;;;;;;7.50;2.45;;;;;;;;;;4897579;29;20044;-69
2023/10/21 21:05:45;;;;;;;6.53;2.15;;;;;;;;;;4899532;29;20056;-69
2023/10/21 21:08:14;;;;;;;6.47;2.75;;;;;;;;;;4900586;29;20080;-70
2023/10/21 21:10:40;;;;;;;7.57;2.58;;;;;;;;;;4900167;29;20679;-69
2023/10/21 21:13:07;;;;;;;8.27;2.20;;;;;;;;;;4901211;29;20052;-69
2023/10/21 21:15:34;;;;;;;9.23;2.55;;;;;;;;;;4903446;29;20139;-69
2023/10/21 21:18:01;;;;;;;9.02;2.60;;;;;;;;;;4903021;29;20079;-69
2023/10/21 21:20:28;;;;;;;4.90;2.35;;;;;;;;;;4902026;29;20052;-68
2023/10/21 21:22:58;;;;;;;5.80;2.55;;;;;;;;;;4902455;29;20064;-67